Main page
METAR-TAF:

METAR-TAF

Airports :

Ponta Porã International Airport

Ponta Porã, Mato Grosso do Sul, Brazil

latitude: 22-33S, longitude: 055-42W, elevation: 657 m

Current weather observation

The report was made 10 hours and 53 minutes ago, at 21:00 UTC
Wind 14 kt from the South
Temperature 11°C
Humidity 37%
Pressure 1025 hPa
Visibility 10 km or more
no clouds below 1500 m and no cumulonimbus

METAR: SBPP 292100Z 18014KT CAVOK 11/M03 Q1025

Time: 03:53 (07:53 UTC)

Forecast

The report was made 5 hours and 53 minutes ago, at 02:00 UTC
Forecast valid from 30 at 06 UTC to 31 at 06 UTC
Wind 7 kt from the South/Southeast
Visibility 10 km or more
no clouds below 1500 m and no cumulonimbus
Becoming
from 30 at 13 UTC to 30 at 15 UTC
Wind 7 kt from the East

TAF: SBPP 300200Z 3006/3106 16007KT CAVOK TN03/3010Z TX18/3018Z BECMG 3013/3015 10007KT RMK PGF

Weather observations and forecasts of more than 4000 airports (METAR and TAF reports).

The available stations are represented by yellow and red dots on the map.

Hover mouse over dot to see the name of the station.

Then click to see weather observations and forecasts.

To change the map : click on the green buttons with a black cross to zoom in, on the green button with a dash to zoom out, or on the green arrows for adjacent maps.


METAR-TAF: